Currently 54°F in San Jacinto, California, USA
54°F
55°F / 54°F
calm
0.00"
Saturday, April 4, 2020 12:31 AM PDT

San Jacinto, California Weather Summary
Last 36 Hours

Temperature Winds Hourly Humidity Dewpoint
Time Report Norm Report Norm Max Gusts Precip. Rpt. Norm Rpt. Norm Pressure
1Sat 12:31 AM  54.3°F  54°F  calm  1 mph  none  0.00"  77%  71%  47°F  44°F  29.92"
3Sat 12:23 AM  54.3°F  54°F  calm  1 mph  none  ----  77%  70%  47°F  44°F  29.92"
2Sat 12:00 AM  54.7°F  54°F  calm  1 mph  1 mph  0.00"  75%  70%  47°F  44°F  29.93"
Fri 11:00 PM  55.8°F  56°F  calm  1 mph  5 mph  0.00"  75%  67%  48°F  44°F  29.95"
Fri 10:00 PM  56.5°F  57°F  calm  1 mph  6 mph  0.00"  74%  65%  48°F  45°F  29.95"
Fri 09:00 PM  57.7°F  59°F  calm  1 mph  3 mph  0.00"  73%  62%  49°F  45°F  29.92"
Fri 08:00 PM  59.2°F  61°F  calm  2 mph  3 mph  0.00"  71%  57%  49°F  45°F  29.90"
Fri 07:00 PM  60.3°F  64°F  calm  3 mph  15 mph  0.00"  69%  49%  50°F  44°F  29.88"
Fri 06:00 PM  63.9°F  68°F  9 mph S  5 mph  15 mph  0.00"  64%  42%  51°F  43°F  29.86"
Fri 05:00 PM  66.7°F  70°F  9 mph SW  5 mph  15 mph  0.00"  58%  37%  51°F  42°F  29.85"
Fri 04:00 PM  67.5°F  71°F  3 mph NW  5 mph  16 mph  0.00"  46%  35%  45°F  41°F  29.86"
Fri 03:00 PM  67.8°F  71°F  7 mph N  4 mph  14 mph  0.00"  44%  34%  44°F  40°F  29.89"
Fri 02:00 PM  66.0°F  70°F  calm  3 mph  13 mph  0.00"  47%  35%  44°F  40°F  29.91"
Fri 01:00 PM  65.7°F  69°F  calm  3 mph  11 mph  0.00"  50%  38%  46°F  41°F  29.93"
Fri 12:00 PM  62.6°F  66°F  1 mph W  2 mph  9 mph  0.00"  57%  42%  47°F  42°F  29.95"
Fri 11:00 AM  61.5°F  64°F  1 mph NW  2 mph  5 mph  0.00"  59%  47%  46°F  43°F  29.97"
Fri 10:00 AM  57.4°F  60°F  calm  1 mph  7 mph  0.00"  74%  56%  49°F  44°F  29.98"
Fri 09:00 AM  56.5°F  55°F  calm  1 mph  none  0.00"  79%  67%  50°F  44°F  29.98"
Fri 08:00 AM  53.8°F  51°F  calm  1 mph  1 mph  0.00"  85%  74%  49°F  43°F  29.98"
Fri 07:00 AM  52.2°F  48°F  calm  calm  none  0.00"  87%  79%  48°F  42°F  29.97"
Fri 06:00 AM  52.2°F  49°F  calm  calm  none  0.00"  87%  78%  48°F  42°F  29.97"
Fri 05:00 AM  52.3°F  49°F  calm  calm  1 mph  0.00"  86%  77%  48°F  42°F  29.95"
Fri 04:00 AM  52.9°F  50°F  calm  calm  none  0.00"  86%  75%  49°F  42°F  29.95"
Fri 03:00 AM  53.6°F  51°F  calm  calm  none  0.00"  84%  74%  49°F  43°F  29.95"
Fri 02:00 AM  54.0°F  52°F  calm  calm  none  0.00"  84%  73%  49°F  43°F  29.98"
Fri 01:00 AM  53.8°F  53°F  calm  1 mph  1 mph  0.00"  84%  70%  49°F  43°F  29.99"
Fri 12:00 AM  54.1°F  54°F  calm  1 mph  2 mph  0.00"  84%  69%  49°F  44°F  29.98"
Thu 11:00 PM  54.5°F  55°F  calm  1 mph  3 mph  0.00"  82%  66%  49°F  44°F  29.99"
Thu 10:00 PM  55.0°F  57°F  calm  1 mph  6 mph  0.00"  82%  65%  49°F  45°F  29.99"
Thu 09:00 PM  56.1°F  59°F  calm  1 mph  9 mph  0.00"  80%  61%  50°F  45°F  29.98"
Thu 08:00 PM  57.9°F  61°F  calm  2 mph  11 mph  0.00"  76%  57%  50°F  45°F  29.95"
Thu 07:00 PM  60.4°F  64°F  2 mph SW  3 mph  13 mph  0.00"  70%  48%  50°F  44°F  29.93"
Thu 06:00 PM  64.6°F  68°F  4 mph SW  5 mph  14 mph  0.00"  60%  42%  50°F  43°F  29.92"
Thu 05:00 PM  65.7°F  70°F  calm  5 mph  8 mph  0.00"  55%  37%  48°F  41°F  29.92"
Thu 04:00 PM  65.1°F  71°F  calm  5 mph  7 mph  0.00"  53%  34%  47°F  40°F  29.93"
Thu 03:00 PM  64.9°F  71°F  calm  4 mph  7 mph  0.00"  53%  33%  47°F  40°F  29.94"
Thu 02:00 PM  64.8°F  70°F  1 mph NW  4 mph  9 mph  0.00"  52%  34%  46°F  39°F  29.95"
Thu 01:00 PM  63.9°F  69°F  calm  3 mph  10 mph  0.00"  53%  37%  46°F  40°F  29.95"
Thu 12:00 PM  64.0°F  66°F  calm  3 mph  10 mph  0.00"  52%  41%  45°F  41°F  29.96"

  1. Current weather data. No green row appears if the current weather data is also the high or low for the current day.
  2. High temperature for the current day.
  3. Low temperature for the current day.

The San Jacinto, California weather pages are a service of WeatherCurrents. San Jacinto is located in the heart of the San Jacinto Valley, near Hemet, the Soboba Casino, and at the foot of the San Jacinto Mountains.
Copyright ©2020  WeatherCurrents. All rights reserved. - Submit questions and comments - Privacy Policy

This page automatically refreshes every 10 minutes.